Time;durP1;ratioP1;P1;durP2;ratioP2;P2;SDS_P1;SDS_P2;PMS_P1;PMS_P2;Temp;Humidity;BMP_temperature;BMP_pressure;BME280_temperature;BME280_humidity;BME280_pressure;Samples;Min_cycle;Max_cycle;Signal;HPM_P1;HPM_P2
2022/07/16 00:01:22;;;;;;;5.25;3.92;;;;;;;17.21;52.38;99959.03;346171;28;1104;-73
2022/07/16 00:01:34;;;;;;;7.07;4.43;;;;;;;17.06;52.45;99970.38;346212;28;2781;-72
2022/07/16 00:01:46;;;;;;;8.90;4.25;;;;;;;17.05;52.52;99966.91;345975;28;1468;-72
2022/07/16 00:01:58;;;;;;;9.48;4.10;;;;;;;17.06;52.18;99965.94;345046;28;2200;-72
2022/07/16 00:02:10;;;;;;;7.97;4.13;;;;;;;17.05;52.12;99968.69;345954;28;1071;-72
2022/07/16 00:02:22;;;;;;;6.82;4.05;;;;;;;17.03;51.86;99966.13;345871;28;2001;-72
2022/07/16 00:02:34;;;;;;;5.97;3.90;;;;;;;17.02;51.92;99969.69;346015;28;1647;-72
2022/07/16 00:02:46;;;;;;;7.82;3.95;;;;;;;17.01;52.46;99962.75;345816;28;1552;-72
2022/07/16 00:02:58;;;;;;;8.30;4.18;;;;;;;16.97;52.77;99966.47;345585;28;2038;-72
2022/07/16 00:03:10;;;;;;;8.65;4.18;;;;;;;17.00;52.64;99960.19;344967;28;1070;-72
2022/07/16 00:03:22;;;;;;;6.60;3.80;;;;;;;16.98;52.58;99973.41;346191;28;1905;-72
2022/07/16 00:03:34;;;;;;;6.25;3.80;;;;;;;16.98;52.47;99965.53;345523;28;1790;-72
2022/07/16 00:03:46;;;;;;;6.18;3.83;;;;;;;16.99;52.11;99969.84;345391;28;1887;-72
2022/07/16 00:04:00;;;;;;;6.45;3.75;;;;;;;17.00;52.18;99965.44;346416;28;1112;-72
2022/07/16 00:04:13;;;;;;;6.65;4.07;;;;;;;16.96;52.54;99965.63;346382;28;1287;-72
2022/07/16 00:04:25;;;;;;;6.78;4.18;;;;;;;16.98;52.53;99970.78;345652;28;1732;-73
2022/07/16 00:04:37;;;;;;;7.28;4.18;;;;;;;17.01;52.58;99961.91;345918;28;1885;-72
2022/07/16 00:04:49;;;;;;;7.53;4.22;;;;;;;17.01;52.11;99967.16;346351;28;1035;-72
2022/07/16 00:05:02;;;;;;;5.88;4.00;;;;;;;17.01;52.01;99968.00;346235;28;1187;-72
2022/07/16 00:05:14;;;;;;;6.85;4.10;;;;;;;17.02;52.07;99969.69;344828;28;2203;-72
2022/07/16 00:05:26;;;;;;;7.97;3.92;;;;;;;16.99;51.87;99972.50;346131;28;1589;-72
2022/07/16 00:05:38;;;;;;;8.85;3.97;;;;;;;16.95;51.67;99969.16;346082;28;2025;-72
2022/07/16 00:05:50;;;;;;;8.60;3.97;;;;;;;16.92;52.04;99969.34;346050;28;1919;-73
2022/07/16 00:06:03;;;;;;;8.07;3.92;;;;;;;16.87;52.10;99975.78;346402;28;1322;-72
2022/07/16 00:06:15;;;;;;;7.07;3.78;;;;;;;16.83;52.43;99971.63;346401;28;1251;-72
2022/07/16 00:06:28;;;;;;;6.90;3.95;;;;;;;16.78;52.69;99966.56;346541;28;1012;-72
2022/07/16 00:06:41;;;;;;;5.57;3.90;;;;;;;16.73;52.87;99965.97;345584;28;1773;-72
2022/07/16 00:06:53;;;;;;;6.10;3.90;;;;;;;16.65;52.83;99971.63;346248;28;1635;-72
2022/07/16 00:07:05;;;;;;;6.43;3.90;;;;;;;16.69;52.57;99970.53;346105;28;1364;-72
2022/07/16 00:07:19;;;;;;;6.15;3.95;;;;;;;16.68;52.50;99970.59;346728;28;1061;-72
2022/07/16 00:07:31;;;;;;;5.57;3.70;;;;;;;16.71;52.57;99967.84;346294;28;1556;-72
2022/07/16 00:07:43;;;;;;;4.35;3.70;;;;;;;16.70;52.48;99974.00;345535;28;1735;-73
2022/07/16 00:07:55;;;;;;;6.80;3.80;;;;;;;16.68;53.34;99970.59;345946;28;1922;-73
2022/07/16 00:08:07;;;;;;;7.75;3.83;;;;;;;16.64;52.95;99969.94;346222;28;2199;-73
2022/07/16 00:08:19;;;;;;;5.97;3.80;;;;;;;16.67;53.56;99968.94;346111;28;1754;-73
2022/07/16 00:08:31;;;;;;;4.63;3.88;;;;;;;16.65;53.35;99974.25;346527;28;1046;-73
2022/07/16 00:08:43;;;;;;;5.88;4.00;;;;;;;16.62;53.97;99969.19;343794;28;2058;-73
2022/07/16 00:08:55;;;;;;;6.03;3.95;;;;;;;16.54;53.47;99968.69;345261;28;1896;-73
2022/07/16 00:09:07;;;;;;;6.40;3.92;;;;;;;16.54;53.63;99968.69;344761;28;1067;-73
2022/07/16 00:09:19;;;;;;;6.03;3.70;;;;;;;16.55;53.69;99973.03;344833;28;1626;-73
2022/07/16 00:09:31;;;;;;;5.63;3.75;;;;;;;16.54;54.02;99968.69;344895;28;1247;-73
2022/07/16 00:09:43;;;;;;;5.53;3.72;;;;;;;16.49;53.76;99975.97;343823;28;1906;-73
2022/07/16 00:09:55;;;;;;;5.20;4.00;;;;;;;16.51;53.73;99974.13;345021;28;1849;-73
2022/07/16 00:10:08;;;;;;;5.82;4.00;;;;;;;16.50;53.20;99969.78;343628;28;1051;-73
2022/07/16 00:10:20;;;;;;;6.95;3.92;;;;;;;16.45;53.39;99977.06;343379;28;1298;-73
2022/07/16 00:10:32;;;;;;;7.00;4.13;;;;;;;16.41;53.50;99967.66;343358;28;1051;-73
2022/07/16 00:10:44;;;;;;;5.63;4.18;;;;;;;16.38;53.42;99980.00;344057;28;2183;-73
2022/07/16 00:10:56;;;;;;;5.57;4.00;;;;;;;16.38;53.67;99969.50;346060;28;1814;-72
2022/07/16 00:11:08;;;;;;;6.13;3.90;;;;;;;16.40;53.46;99971.19;346333;28;1079;-72
2022/07/16 00:11:22;;;;;;;6.68;4.05;;;;;;;16.42;53.76;99969.34;345939;28;1779;-72
2022/07/16 00:11:34;;;;;;;9.18;4.03;;;;;;;16.40;53.59;99969.44;346264;28;1276;-72
2022/07/16 00:11:46;;;;;;;10.27;4.03;;;;;;;16.37;53.96;99969.59;343278;28;1743;-72
2022/07/16 00:11:58;;;;;;;8.55;4.00;;;;;;;16.35;53.78;99972.28;344578;28;1772;-72
2022/07/16 00:12:10;;;;;;;6.82;3.95;;;;;;;16.35;53.97;99969.66;346167;28;1043;-72
2022/07/16 00:12:22;;;;;;;6.05;3.80;;;;;;;16.37;54.06;99967.81;346418;28;1176;-72
2022/07/16 00:12:34;;;;;;;6.32;3.92;;;;;;;16.40;54.08;99977.31;346172;28;1209;-72
2022/07/16 00:12:47;;;;;;;6.07;4.00;;;;;;;16.35;54.47;99968.81;343825;28;2005;-72
2022/07/16 00:12:59;;;;;;;5.75;4.10;;;;;;;16.38;54.40;99974.75;344919;28;1754;-72
2022/07/16 00:13:11;;;;;;;6.10;4.07;;;;;;;16.42;54.37;99974.59;346278;28;1123;-72
2022/07/16 00:13:23;;;;;;;5.47;3.92;;;;;;;16.42;53.81;99969.34;344854;28;1046;-72
2022/07/16 00:13:35;;;;;;;6.10;4.22;;;;;;;16.43;53.73;99971.06;345308;28;1290;-72
2022/07/16 00:13:48;;;;;;;5.88;4.20;;;;;;;16.41;53.73;99967.66;345919;28;1416;-72
2022/07/16 00:14:00;;;;;;;4.82;3.85;;;;;;;16.39;53.80;99970.34;345911;28;1179;-72
2022/07/16 00:14:12;;;;;;;4.97;3.80;;;;;;;16.43;53.64;99976.31;346503;28;1181;-72
2022/07/16 00:14:24;;;;;;;7.43;4.15;;;;;;;16.43;53.58;99974.50;345947;28;1795;-72
2022/07/16 00:14:36;;;;;;;7.10;4.22;;;;;;;16.44;53.28;99970.09;346573;28;1094;-72
2022/07/16 00:14:48;;;;;;;7.30;3.97;;;;;;;16.44;53.24;99976.22;345928;28;1580;-72
2022/07/16 00:15:02;;;;;;;5.68;3.80;;;;;;;16.44;53.64;99972.72;346161;28;1245;-72
2022/07/16 00:15:14;;;;;;;6.53;4.05;;;;;;;16.46;53.61;99970.88;345945;28;1461;-73
2022/07/16 00:15:26;;;;;;;6.05;4.18;;;;;;;16.44;53.55;99972.72;345586;28;1994;-73
2022/07/16 00:15:38;;;;;;;6.82;4.28;;;;;;;16.44;53.58;99967.47;346367;28;1088;-73
2022/07/16 00:15:50;;;;;;;7.05;4.20;;;;;;;16.43;53.47;99966.66;346323;28;1618;-73
2022/07/16 00:16:02;;;;;;;7.05;4.15;;;;;;;16.37;53.54;99970.44;346057;28;1269;-73
2022/07/16 00:16:15;;;;;;;7.13;4.20;;;;;;;16.41;53.65;99965.03;346307;28;1049;-73
2022/07/16 00:16:27;;;;;;;7.97;4.28;;;;;;;16.40;53.83;99968.56;346466;28;1279;-73
2022/07/16 00:16:39;;;;;;;6.93;4.30;;;;;;;16.39;53.73;99972.97;345973;28;1731;-73
2022/07/16 00:16:51;;;;;;;6.25;4.30;;;;;;;16.35;53.67;99964.41;345965;28;1505;-73
2022/07/16 00:17:03;;;;;;;5.10;4.15;;;;;;;16.33;54.10;99971.50;345101;28;1176;-73
2022/07/16 00:17:15;;;;;;;5.63;4.30;;;;;;;16.36;53.95;99971.38;344954;28;1071;-73
2022/07/16 00:17:27;;;;;;;6.70;4.38;;;;;;;16.36;54.21;99971.38;345885;28;1568;-73
2022/07/16 00:17:39;;;;;;;6.68;4.25;;;;;;;16.38;54.48;99969.50;345517;28;1940;-73
2022/07/16 00:19:15;;;;;;;6.50;4.13;;;;;;;16.42;54.05;99964.09;344699;28;1646;-73
2022/07/16 00:19:18;;;;;;;7.78;5.38;;;;;;;16.43;53.34;99968.44;337739;29;1309;-72
2022/07/16 00:19:30;;;;;;;11.38;5.78;;;;;;;16.44;54.15;99967.47;338252;29;960;-72
2022/07/16 00:19:42;;;;;;;10.77;5.50;;;;;;;16.45;54.15;99969.19;337528;29;1739;-72
2022/07/16 00:19:54;;;;;;;9.65;5.22;;;;;;;16.43;53.74;99971.88;338587;29;1959;-72
2022/07/16 00:20:07;;;;;;;8.50;5.15;;;;;;;16.45;53.79;99966.56;338392;29;1021;-72
2022/07/16 00:20:19;;;;;;;8.18;4.95;;;;;;;16.46;53.83;99971.75;337946;29;1764;-73
2022/07/16 00:20:31;;;;;;;7.72;4.82;;;;;;;16.47;53.93;99967.34;337935;29;2075;-73
2022/07/16 00:20:43;;;;;;;7.10;4.63;;;;;;;16.48;53.84;99969.88;338110;29;1683;-73
2022/07/16 00:20:56;;;;;;;7.35;4.63;;;;;;;16.51;53.98;99974.13;338838;29;1825;-73
2022/07/16 00:21:08;;;;;;;7.80;4.78;;;;;;;16.51;54.07;99968.88;339354;29;1057;-72
2022/07/16 00:21:20;;;;;;;7.85;4.90;;;;;;;16.53;53.99;99972.28;339762;29;1242;-72
2022/07/16 00:21:32;;;;;;;7.22;4.85;;;;;;;16.54;53.95;99974.81;340872;29;1094;-72
2022/07/16 00:21:46;;;;;;;6.80;5.00;;;;;;;16.56;53.95;99972.13;338880;29;1721;-73
2022/07/16 00:21:58;;;;;;;7.50;5.00;;;;;;;16.58;54.10;99975.50;338080;29;1814;-73
2022/07/16 00:22:10;;;;;;;6.90;4.80;;;;;;;16.57;53.92;99973.81;339693;28;1226;-72
2022/07/16 00:22:22;;;;;;;6.47;4.60;;;;;;;16.58;53.64;99970.25;344661;28;1464;-72
2022/07/16 00:22:34;;;;;;;8.53;4.87;;;;;;;16.60;53.68;99968.41;344757;28;1048;-72
2022/07/16 00:22:46;;;;;;;8.43;4.83;;;;;;;16.61;53.48;99964.84;344135;28;1910;-73
2022/07/16 00:22:58;;;;;;;7.82;4.90;;;;;;;16.62;53.45;99971.81;344338;28;1835;-73
2022/07/16 00:23:10;;;;;;;7.32;4.95;;;;;;;16.64;53.54;99971.69;343597;28;1111;-73
2022/07/16 00:23:22;;;;;;;8.38;4.85;;;;;;;16.63;53.33;99976.09;343511;28;2115;-73
2022/07/16 00:23:34;;;;;;;7.18;4.80;;;;;;;16.65;53.78;99970.78;343644;28;1102;-73
2022/07/16 00:23:46;;;;;;;6.68;4.72;;;;;;;16.62;53.62;99970.94;341955;28;1688;-72
2022/07/16 00:23:58;;;;;;;6.57;4.80;;;;;;;16.61;54.04;99967.47;342616;28;1881;-72
2022/07/16 00:24:10;;;;;;;7.72;4.68;;;;;;;16.62;53.93;99974.44;343611;28;1341;-72
2022/07/16 00:24:24;;;;;;;9.00;4.80;;;;;;;16.61;54.33;99975.34;343745;28;1242;-72
2022/07/16 00:24:36;;;;;;;7.50;4.85;;;;;;;16.63;54.23;99973.47;343685;28;1131;-72
2022/07/16 00:24:48;;;;;;;7.57;4.72;;;;;;;16.62;54.62;99971.81;342203;28;1741;-72
2022/07/16 00:25:01;;;;;;;8.13;4.80;;;;;;;16.63;54.30;99973.47;343176;28;1285;-72
2022/07/16 00:25:13;;;;;;;8.68;4.70;;;;;;;16.64;54.27;99975.19;344147;28;1395;-72
2022/07/16 00:25:25;;;;;;;7.63;4.82;;;;;;;16.63;54.77;99973.47;344941;28;1079;-72
2022/07/16 00:25:37;;;;;;;8.90;5.00;;;;;;;16.63;54.90;99970.84;345668;28;1259;-72
2022/07/16 00:25:49;;;;;;;8.32;4.85;;;;;;;16.62;55.19;99977.03;346198;28;1695;-72
2022/07/16 00:26:01;;;;;;;7.85;4.93;;;;;;;16.63;54.77;99978.72;345332;28;1572;-72
2022/07/16 00:26:13;;;;;;;7.38;4.93;;;;;;;16.64;54.69;99974.31;346331;28;1333;-72
2022/07/16 00:26:25;;;;;;;8.50;4.80;;;;;;;16.63;54.62;99972.63;345977;28;1780;-73
2022/07/16 00:26:37;;;;;;;7.68;4.72;;;;;;;16.64;54.74;99980.44;346197;28;1531;-73
2022/07/16 00:26:50;;;;;;;7.53;4.70;;;;;;;16.69;54.37;99977.56;345931;28;1682;-73
2022/07/16 00:27:03;;;;;;;7.65;4.78;;;;;;;16.68;55.38;99981.97;344535;28;1341;-73
2022/07/16 00:27:15;;;;;;;7.82;4.95;;;;;;;16.67;55.15;99980.25;344971;28;1146;-73
2022/07/16 00:27:27;;;;;;;9.07;4.80;;;;;;;16.69;54.44;99967.91;344740;28;2028;-73
2022/07/16 00:27:38;;;;;;;7.63;4.55;;;;;;;16.70;54.38;99974.88;344977;28;1323;-73
2022/07/16 00:27:50;;;;;;;7.70;4.50;;;;;;;16.69;54.82;99973.16;344727;28;1238;-73
2022/07/16 00:28:03;;;;;;;6.80;4.60;;;;;;;16.69;54.30;99973.16;344622;28;1276;-73
2022/07/16 00:28:15;;;;;;;8.95;4.80;;;;;;;16.70;54.35;99977.50;344671;28;1253;-72
2022/07/16 00:28:27;;;;;;;9.82;4.88;;;;;;;16.68;54.57;99974.09;344799;28;1324;-72
2022/07/16 00:28:39;;;;;;;10.07;4.70;;;;;;;16.68;55.12;99976.72;344600;28;1642;-72
2022/07/16 00:28:51;;;;;;;8.65;4.70;;;;;;;16.69;55.27;99978.41;343580;28;1333;-72
2022/07/16 00:29:03;;;;;;;8.38;4.70;;;;;;;16.69;55.25;99978.41;345596;28;1261;-72
2022/07/16 00:29:21;;;;;;;7.07;4.88;;;;;;;16.71;54.75;99980.97;346425;28;1252;-72
2022/07/16 00:29:33;;;;;;;7.47;4.65;;;;;;;16.69;54.65;99977.56;345961;28;2078;-72
2022/07/16 00:29:45;;;;;;;8.93;4.30;;;;;;;16.67;54.70;99980.25;346108;28;1234;-73
2022/07/16 00:29:57;;;;;;;9.20;4.38;;;;;;;16.67;54.67;99975.00;346158;28;1251;-73
2022/07/16 00:30:10;;;;;;;9.38;4.30;;;;;;;16.67;55.12;99972.38;344851;28;1359;-73
2022/07/16 00:30:22;;;;;;;7.88;4.30;;;;;;;16.64;55.19;99975.19;345005;28;1174;-73
2022/07/16 00:30:34;;;;;;;7.15;4.32;;;;;;;16.63;55.01;99976.09;344969;28;1047;-73
2022/07/16 00:30:46;;;;;;;6.13;4.55;;;;;;;16.67;54.91;99972.38;345067;28;1229;-73
2022/07/16 00:30:58;;;;;;;5.82;4.70;;;;;;;16.68;54.42;99976.72;344557;28;1415;-72
2022/07/16 00:31:10;;;;;;;5.68;4.63;;;;;;;16.69;54.03;99972.31;346114;28;1339;-72
2022/07/16 00:31:22;;;;;;;6.93;4.50;;;;;;;16.68;53.72;99966.22;346008;28;1981;-73
2022/07/16 00:31:35;;;;;;;8.50;4.43;;;;;;;16.70;53.56;99972.25;345121;28;1027;-73
2022/07/16 00:31:48;;;;;;;8.48;4.47;;;;;;;16.72;53.58;99975.63;344579;28;2190;-73
2022/07/16 00:32:00;;;;;;;9.65;4.40;;;;;;;16.70;53.59;99968.75;344613;28;1258;-73
2022/07/16 00:32:12;;;;;;;9.52;4.30;;;;;;;16.67;53.89;99974.16;346239;28;1074;-73
2022/07/16 00:32:24;;;;;;;8.45;4.45;;;;;;;16.65;54.01;99971.63;346335;28;1118;-72
2022/07/16 00:32:36;;;;;;;7.07;4.45;;;;;;;16.65;54.24;99969.00;345894;28;1219;-72
2022/07/16 00:32:48;;;;;;;7.10;4.40;;;;;;;16.64;54.58;99972.56;344863;28;1418;-72
2022/07/16 00:33:00;;;;;;;9.63;4.63;;;;;;;16.65;54.56;99971.63;344823;28;1297;-72
2022/07/16 00:33:12;;;;;;;9.30;4.80;;;;;;;16.67;54.37;99963.69;344647;28;2291;-72
2022/07/16 00:33:25;;;;;;;9.90;4.72;;;;;;;16.68;54.50;99971.47;344916;28;1255;-72
2022/07/16 00:33:37;;;;;;;8.45;4.40;;;;;;;16.69;53.89;99967.91;344955;28;1508;-72
2022/07/16 00:33:49;;;;;;;7.85;4.35;;;;;;;16.71;53.80;99973.91;346188;28;1104;-73
2022/07/16 00:34:05;;;;;;;6.78;4.47;;;;;;;16.70;53.67;99964.38;345666;28;1315;-72
2022/07/16 00:34:17;;;;;;;6.40;4.55;;;;;;;16.72;53.71;99966.88;345503;28;1186;-72
2022/07/16 00:34:29;;;;;;;6.03;4.60;;;;;;;16.68;54.97;99966.22;346100;28;1736;-72
2022/07/16 00:34:41;;;;;;;7.13;4.57;;;;;;;16.72;54.51;99970.38;346379;28;1717;-72
2022/07/16 00:34:53;;;;;;;7.78;4.55;;;;;;;16.74;54.27;99971.16;345933;28;1679;-72
2022/07/16 00:35:06;;;;;;;6.63;4.40;;;;;;;16.75;54.31;99972.81;345067;28;1074;-72
2022/07/16 00:35:18;;;;;;;7.28;4.55;;;;;;;16.75;54.16;99967.56;344723;28;1245;-72
2022/07/16 00:35:30;;;;;;;6.93;4.50;;;;;;;16.76;54.22;99974.53;345379;28;721;-72
2022/07/16 00:35:42;;;;;;;6.93;4.30;;;;;;;16.74;53.96;99970.28;344743;28;1717;-72
2022/07/16 00:35:54;;;;;;;5.25;4.10;;;;;;;16.75;54.05;99972.00;346086;28;1507;-72
2022/07/16 00:36:06;;;;;;;5.00;4.05;;;;;;;16.74;53.94;99965.91;346523;28;1125;-72
2022/07/16 00:36:18;;;;;;;5.78;4.20;;;;;;;16.69;54.53;99970.53;346373;28;1061;-72
2022/07/16 00:36:30;;;;;;;7.63;4.35;;;;;;;16.59;54.54;99974.56;346404;28;1022;-72
2022/07/16 00:36:42;;;;;;;8.95;4.88;;;;;;;16.56;54.25;99972.13;345404;28;1784;-72
2022/07/16 00:36:55;;;;;;;8.32;5.10;;;;;;;16.51;54.45;99964.47;344981;28;2001;-72
2022/07/16 00:37:07;;;;;;;7.18;4.78;;;;;;;16.46;54.73;99965.63;346238;28;1135;-72
2022/07/16 00:37:19;;;;;;;6.60;4.47;;;;;;;16.40;54.82;99966.81;346393;28;1341;-72
2022/07/16 00:37:31;;;;;;;7.45;4.55;;;;;;;16.40;55.01;99968.56;346063;28;1430;-73
2022/07/16 00:37:43;;;;;;;7.30;4.63;;;;;;;16.38;55.14;99974.75;345094;28;1724;-73
2022/07/16 00:37:55;;;;;;;6.80;4.63;;;;;;;16.35;55.54;99964.41;346192;28;1480;-72
2022/07/16 00:38:07;;;;;;;5.57;4.30;;;;;;;16.35;55.20;99974.91;346174;28;1066;-72
2022/07/16 00:38:19;;;;;;;6.85;4.50;;;;;;;16.38;54.90;99966.88;346118;28;2088;-72
2022/07/16 00:38:31;;;;;;;6.90;4.60;;;;;;;16.41;54.75;99967.66;346000;28;1183;-72
2022/07/16 00:38:43;;;;;;;9.57;4.65;;;;;;;16.41;54.80;99970.28;345241;28;1889;-72
2022/07/16 00:38:55;;;;;;;8.73;4.43;;;;;;;16.43;54.87;99981.53;345511;28;1742;-72
2022/07/16 00:39:09;;;;;;;6.75;4.50;;;;;;;16.44;55.05;99967.47;343991;28;1250;-72
2022/07/16 00:39:21;;;;;;;6.43;4.50;;;;;;;16.46;55.16;99968.25;344947;28;1090;-72
2022/07/16 00:39:33;;;;;;;7.35;4.60;;;;;;;16.47;54.99;99969.97;344819;28;1176;-72
2022/07/16 00:39:45;;;;;;;9.15;4.70;;;;;;;16.49;54.95;99965.47;343851;28;1793;-72
2022/07/16 00:39:57;;;;;;;8.82;4.55;;;;;;;16.50;54.99;99973.28;344599;28;1874;-72
2022/07/16 00:40:09;;;;;;;7.60;4.60;;;;;;;16.49;55.55;99970.72;344852;28;1265;-72
2022/07/16 00:40:21;;;;;;;8.20;4.70;;;;;;;16.46;56.32;99970.88;344901;28;1189;-72
2022/07/16 00:40:33;;;;;;;7.85;4.85;;;;;;;16.45;56.14;99963.94;344420;28;2244;-72
2022/07/16 00:40:46;;;;;;;7.38;4.70;;;;;;;16.46;56.25;99965.63;343731;28;2066;-72
2022/07/16 00:40:58;;;;;;;5.43;4.43;;;;;;;16.48;55.65;99969.03;344688;28;1996;-72
2022/07/16 00:41:19;;;;;;;6.30;4.50;;;;;;;16.49;55.37;99965.47;345370;28;1051;-72
2022/07/16 00:41:31;;;;;;;7.75;4.57;;;;;;;16.49;55.73;99970.72;346112;28;1215;-72
2022/07/16 00:41:46;;;;;;;9.40;4.63;;;;;;;16.49;55.62;99970.72;345868;28;1862;-72
2022/07/16 00:41:58;;;;;;;9.98;4.57;;;;;;;16.47;55.65;99964.72;345340;28;1888;-72
2022/07/16 00:42:10;;;;;;;8.27;4.70;;;;;;;16.47;55.37;99973.44;344854;28;1173;-72
2022/07/16 00:42:22;;;;;;;8.55;4.60;;;;;;;16.47;55.27;99968.19;344834;28;1832;-72
2022/07/16 00:42:34;;;;;;;7.80;4.78;;;;;;;16.46;55.39;99970.88;345257;28;1812;-72
2022/07/16 00:42:46;;;;;;;8.18;4.78;;;;;;;16.45;55.28;99969.19;346433;28;1157;-72
2022/07/16 00:42:59;;;;;;;7.32;4.68;;;;;;;16.44;55.70;99972.72;346267;28;1164;-72
2022/07/16 00:43:12;;;;;;;7.10;4.60;;;;;;;16.43;55.39;99965.81;346030;28;1719;-72
2022/07/16 00:43:24;;;;;;;9.30;4.70;;;;;;;16.41;55.45;99968.50;345904;28;1510;-72
2022/07/16 00:43:47;;;;;;;10.35;4.78;;;;;;;16.43;55.26;99965.81;346297;28;1259;-73
2022/07/16 00:44:01;;;;;;;7.25;4.50;;;;;;;16.44;55.84;99972.72;345337;28;1831;-72
2022/07/16 00:44:16;;;;;;;5.65;4.53;;;;;;;16.44;55.83;99962.22;344961;28;1231;-72
2022/07/16 00:44:28;;;;;;;6.32;4.55;;;;;;;16.43;56.24;99971.88;345212;28;1760;-72
2022/07/16 00:44:40;;;;;;;7.20;4.65;;;;;;;16.46;56.06;99977.00;346221;28;1974;-72
2022/07/16 00:44:52;;;;;;;8.38;4.93;;;;;;;16.47;55.65;99972.59;346519;28;1253;-73
2022/07/16 00:45:05;;;;;;;8.65;4.93;;;;;;;16.50;55.41;99967.16;344791;28;1792;-72
2022/07/16 00:45:17;;;;;;;8.77;4.90;;;;;;;16.51;55.26;99974.97;345674;28;2194;-72
2022/07/16 00:45:29;;;;;;;7.93;4.90;;;;;;;16.54;55.37;99968.69;346507;28;1047;-72
2022/07/16 00:45:41;;;;;;;8.13;4.85;;;;;;;16.52;55.43;99973.19;345584;28;1748;-72
2022/07/16 00:45:53;;;;;;;8.00;4.90;;;;;;;16.51;55.43;99974.97;344997;28;1742;-72
2022/07/16 00:46:05;;;;;;;7.80;4.95;;;;;;;16.51;55.64;99974.13;346349;28;1099;-72
2022/07/16 00:46:18;;;;;;;7.47;4.90;;;;;;;16.47;55.78;99970.81;344340;28;1850;-72
2022/07/16 00:46:31;;;;;;;7.85;4.70;;;;;;;16.48;55.88;99969.03;343802;28;1765;-72
2022/07/16 00:46:44;;;;;;;7.55;4.78;;;;;;;16.47;55.55;99972.59;344439;28;1871;-72
2022/07/16 00:46:56;;;;;;;7.70;4.80;;;;;;;16.48;55.20;99969.03;344751;28;1249;-72
2022/07/16 00:47:08;;;;;;;8.18;5.30;;;;;;;16.46;55.48;99968.25;344780;28;1159;-72
2022/07/16 00:47:20;;;;;;;7.80;5.30;;;;;;;16.48;55.07;99963.78;344841;28;1088;-72
2022/07/16 00:47:32;;;;;;;8.73;5.43;;;;;;;16.49;54.96;99971.56;344710;28;1091;-72
2022/07/16 00:47:44;;;;;;;8.27;4.97;;;;;;;16.50;55.50;99965.41;342886;28;1786;-72
2022/07/16 00:47:56;;;;;;;8.38;4.93;;;;;;;16.53;55.28;99967.03;342867;28;1984;-72
2022/07/16 00:48:09;;;;;;;7.82;4.90;;;;;;;16.54;55.32;99963.44;344871;28;1224;-72
2022/07/16 00:48:21;;;;;;;7.70;4.93;;;;;;;16.56;54.89;99964.25;344144;28;1434;-72
2022/07/16 00:48:33;;;;;;;7.18;4.95;;;;;;;16.58;54.50;99967.63;344797;28;1022;-72
2022/07/16 00:48:46;;;;;;;7.65;5.18;;;;;;;16.58;54.24;99968.47;344248;28;1770;-72
2022/07/16 00:48:58;;;;;;;8.13;5.40;;;;;;;16.58;54.66;99967.63;344006;28;1870;-72
2022/07/16 00:49:12;;;;;;;8.07;5.57;;;;;;;16.56;54.53;99967.72;344515;28;1177;-72
2022/07/16 00:49:24;;;;;;;11.32;5.50;;;;;;;16.56;54.40;99966.88;345020;28;1053;-72
2022/07/16 00:49:36;;;;;;;10.82;5.40;;;;;;;16.55;54.50;99971.25;344432;28;1051;-72
2022/07/16 00:49:48;;;;;;;10.88;5.60;;;;;;;16.37;54.66;99967.81;344474;28;1775;-72
2022/07/16 00:50:00;;;;;;;10.02;5.63;;;;;;;16.41;54.97;99967.66;345303;28;1837;-73
2022/07/16 00:50:12;;;;;;;10.75;5.53;;;;;;;16.42;54.56;99964.09;346145;28;1257;-73
2022/07/16 00:50:24;;;;;;;9.32;5.28;;;;;;;16.44;54.52;99968.34;345204;28;1110;-73
2022/07/16 00:50:36;;;;;;;9.10;5.45;;;;;;;16.45;54.41;99969.19;343533;28;1180;-73
2022/07/16 00:50:48;;;;;;;8.95;5.85;;;;;;;16.47;54.37;99972.59;343987;28;2054;-73
2022/07/16 00:51:00;;;;;;;9.30;5.70;;;;;;;16.48;54.51;99963.78;345294;28;1841;-72
2022/07/16 00:51:14;;;;;;;9.93;5.50;;;;;;;16.47;55.08;99962.94;344869;28;1118;-72
2022/07/16 00:51:28;;;;;;;10.57;5.35;;;;;;;16.47;55.27;99969.97;345052;28;1086;-72
2022/07/16 00:51:51;;;;;;;10.23;5.60;;;;;;;16.42;55.56;99971.97;344227;28;1794;-72
2022/07/16 00:52:03;;;;;;;9.73;6.20;;;;;;;16.44;55.83;99968.34;343656;28;1211;-72
2022/07/16 00:52:15;;;;;;;10.63;6.13;;;;;;;16.42;55.74;99967.59;343496;28;1075;-72
2022/07/16 00:52:27;;;;;;;10.40;6.18;;;;;;;16.37;55.58;99966.97;344276;28;1884;-72
2022/07/16 00:52:39;;;;;;;9.68;6.18;;;;;;;16.26;55.31;99970.16;344822;28;1151;-72
2022/07/16 00:52:52;;;;;;;10.30;6.00;;;;;;;16.23;55.32;99967.66;344435;28;1238;-72
2022/07/16 00:53:07;;;;;;;10.07;5.88;;;;;;;16.23;55.26;99970.28;344748;28;1238;-72
2022/07/16 00:53:19;;;;;;;10.02;6.00;;;;;;;16.19;55.17;99963.50;345094;28;1960;-72
2022/07/16 00:53:32;;;;;;;9.52;5.90;;;;;;;16.21;55.70;99966.06;346217;28;1031;-72
2022/07/16 00:53:45;;;;;;;8.77;5.65;;;;;;;16.23;55.26;99965.03;345353;28;1883;-72
2022/07/16 00:53:58;;;;;;;8.27;5.43;;;;;;;16.26;54.83;99964.03;345564;28;1875;-72
2022/07/16 00:54:10;;;;;;;7.68;5.50;;;;;;;16.29;55.18;99962.09;346151;28;1314;-72
2022/07/16 00:54:22;;;;;;;7.40;5.60;;;;;;;16.27;55.61;99971.81;346280;28;1030;-72
2022/07/16 00:54:34;;;;;;;7.20;5.60;;;;;;;16.27;55.76;99977.06;346351;28;1288;-72
2022/07/16 00:54:46;;;;;;;8.00;5.80;;;;;;;16.25;55.54;99973.69;344279;28;1834;-72
2022/07/16 00:54:58;;;;;;;9.00;6.13;;;;;;;16.23;55.45;99970.28;345078;28;1799;-73
2022/07/16 00:55:11;;;;;;;9.80;6.43;;;;;;;16.18;55.53;99969.69;346223;28;1105;-73
2022/07/16 00:55:23;;;;;;;8.48;6.30;;;;;;;16.14;55.95;99968.16;345536;28;1241;-73
2022/07/16 00:55:35;;;;;;;10.70;6.20;;;;;;;16.12;55.78;99968.22;344701;28;1059;-73
2022/07/16 00:55:47;;;;;;;13.35;6.30;;;;;;;16.11;55.50;99968.28;343942;28;1841;-73
2022/07/16 00:56:00;;;;;;;12.00;6.30;;;;;;;16.10;54.97;99971.84;345204;28;1890;-73
2022/07/16 00:56:13;;;;;;;12.68;6.43;;;;;;;16.13;55.35;99969.06;346228;28;1218;-73
2022/07/16 00:56:26;;;;;;;10.70;6.78;;;;;;;16.16;54.89;99968.94;346292;28;1247;-73
2022/07/16 00:56:38;;;;;;;9.77;6.80;;;;;;;16.19;54.92;99971.38;346210;28;1340;-73
2022/07/16 00:56:50;;;;;;;11.00;7.40;;;;;;;16.21;54.89;99966.91;345886;28;1830;-73
2022/07/16 00:57:03;;;;;;;12.98;7.70;;;;;;;16.20;55.67;99970.47;344903;28;1550;-73
2022/07/16 00:57:15;;;;;;;14.00;8.07;;;;;;;16.21;55.96;99971.31;345946;28;1125;-73
2022/07/16 00:57:27;;;;;;;14.77;7.97;;;;;;;16.20;55.47;99970.47;346042;28;1266;-73
2022/07/16 00:57:39;;;;;;;13.18;7.68;;;;;;;16.22;55.50;99973.84;346352;28;1718;-73
2022/07/16 00:57:51;;;;;;;11.43;7.28;;;;;;;16.23;55.24;99972.06;344787;28;1841;-73
2022/07/16 00:58:03;;;;;;;11.13;7.05;;;;;;;16.22;55.62;99972.97;344748;28;1262;-73
2022/07/16 00:58:15;;;;;;;11.00;7.07;;;;;;;16.21;55.76;99971.31;345385;28;1107;-72
2022/07/16 00:58:27;;;;;;;11.23;7.40;;;;;;;16.21;56.11;99971.31;345967;28;1774;-72
2022/07/16 00:58:42;;;;;;;11.38;7.65;;;;;;;16.21;55.77;99974.75;344723;28;1916;-72
2022/07/16 00:58:55;;;;;;;12.10;7.80;;;;;;;16.19;55.89;99974.00;343555;28;1084;-72
2022/07/16 00:59:07;;;;;;;11.63;7.50;;;;;;;16.24;56.03;99972.00;344322;28;1193;-72
2022/07/16 00:59:19;;;;;;;10.45;7.47;;;;;;;16.26;55.74;99964.91;345057;28;1082;-72
2022/07/16 00:59:31;;;;;;;11.65;7.75;;;;;;;16.29;55.80;99964.72;344925;28;1098;-72
2022/07/16 00:59:43;;;;;;;12.35;7.75;;;;;;;16.26;55.81;99975.41;344823;28;1918;-72
2022/07/16 00:59:55;;;;;;;12.57;7.70;;;;;;;16.28;55.64;99968.28;345351;28;1745;-72
2022/07/16 01:00:08;;;;;;;13.73;7.47;;;;;;;16.25;55.80;99967.59;345951;28;1869;-72
2022/07/16 01:00:20;;;;;;;14.57;7.65;;;;;;;16.22;56.73;99968.59;345854;28;1597;-73
2022/07/16 01:00:33;;;;;;;14.07;7.72;;;;;;;16.19;55.76;99966.13;346038;28;1034;-73
2022/07/16 01:00:45;;;;;;;11.48;7.72;;;;;;;16.15;55.64;99969.84;345445;28;1732;-73
2022/07/16 01:00:57;;;;;;;11.65;7.55;;;;;;;16.14;55.72;99970.78;345566;28;1898;-73
2022/07/16 01:01:09;;;;;;;11.40;7.07;;;;;;;16.10;55.52;99964.81;346020;28;2239;-73
2022/07/16 01:01:23;;;;;;;10.55;6.95;;;;;;;16.11;55.82;99970.91;345827;28;2471;-73
2022/07/16 01:01:35;;;;;;;11.85;6.90;;;;;;;16.13;55.47;99969.06;346389;28;1065;-73
2022/07/16 01:01:47;;;;;;;11.70;6.65;;;;;;;16.12;56.22;99972.63;344623;28;1723;-72
2022/07/16 01:01:59;;;;;;;9.98;6.10;;;;;;;16.13;55.94;99969.91;343821;28;1840;-72
2022/07/16 01:02:11;;;;;;;9.90;6.22;;;;;;;16.13;57.13;99969.06;344877;28;1071;-72